createdAt,value
2022-08-10T00:00:55.784Z,18.50
2022-08-10T00:03:22.249Z,18.45
2022-08-10T00:05:52.613Z,18.35
2022-08-10T00:08:23.772Z,18.28
2022-08-10T00:10:54.206Z,18.22
2022-08-10T00:13:20.832Z,18.12
2022-08-10T00:15:53.905Z,18.04
2022-08-10T00:18:31.542Z,17.99
2022-08-10T00:21:04.523Z,17.88
2022-08-10T00:23:30.958Z,17.85
2022-08-10T00:25:57.466Z,17.81
2022-08-10T00:28:23.912Z,17.74
2022-08-10T00:30:50.395Z,17.66
2022-08-10T00:33:16.956Z,17.60
2022-08-10T00:35:43.437Z,17.54
2022-08-10T00:38:10.198Z,17.49
2022-08-10T00:40:37.668Z,17.44
2022-08-10T00:43:07.864Z,17.43
2022-08-10T00:45:35.175Z,17.39
2022-08-10T00:48:02.045Z,17.34
2022-08-10T00:50:28.735Z,17.28
2022-08-10T00:52:55.198Z,17.25
2022-08-10T00:55:21.889Z,17.27
2022-08-10T00:57:55.314Z,17.22
2022-08-10T01:00:23.123Z,17.24
2022-08-10T01:02:49.745Z,17.29
2022-08-10T01:05:16.297Z,17.26
2022-08-10T01:08:08.323Z,17.24
2022-08-10T01:10:45.030Z,17.30
2022-08-10T01:13:20.615Z,17.32
2022-08-10T01:16:04.382Z,17.33
2022-08-10T01:18:43.101Z,17.28
2022-08-10T01:21:38.562Z,17.23
2022-08-10T01:24:42.719Z,17.17
2022-08-10T01:27:34.197Z,17.17
2022-08-10T01:30:04.477Z,17.15
2022-08-10T01:33:00.124Z,17.09
2022-08-10T01:35:54.627Z,16.97
2022-08-10T01:38:27.685Z,16.94
2022-08-10T01:40:57.040Z,16.94
2022-08-10T01:43:23.627Z,16.93
2022-08-10T01:45:52.701Z,16.93
2022-08-10T01:48:31.502Z,16.93
2022-08-10T01:51:18.033Z,16.89
2022-08-10T01:53:53.517Z,16.88
2022-08-10T01:56:21.224Z,16.83
2022-08-10T01:58:51.316Z,16.80
2022-08-10T02:01:19.762Z,16.78
2022-08-10T02:04:05.019Z,16.68
2022-08-10T02:06:33.937Z,16.66
2022-08-10T02:09:06.488Z,16.61
2022-08-10T02:11:57.538Z,16.64
2022-08-10T02:14:19.709Z,16.67
2022-08-10T02:16:47.761Z,16.63
2022-08-10T02:19:16.101Z,16.61
2022-08-10T02:22:46.092Z,16.61
2022-08-10T02:24:30.747Z,16.59
2022-08-10T02:26:59.928Z,16.55
2022-08-10T02:29:26.461Z,16.53
2022-08-10T02:31:52.901Z,16.39
2022-08-10T02:34:20.775Z,16.44
2022-08-10T02:36:49.441Z,16.45
2022-08-10T02:39:16.482Z,16.41
2022-08-10T02:45:02.316Z,16.39
2022-08-10T02:45:24.220Z,16.34
2022-08-10T02:47:51.171Z,16.33
2022-08-10T02:50:27.649Z,16.31
2022-08-10T02:53:01.879Z,16.27
2022-08-10T02:55:32.790Z,16.26
2022-08-10T02:58:17.358Z,16.17
2022-08-10T03:00:48.356Z,16.18
2022-08-10T03:03:21.437Z,16.12
2022-08-10T03:05:49.889Z,16.06
2022-08-10T03:08:18.771Z,16.01
2022-08-10T03:10:45.194Z,16.01
2022-08-10T03:13:11.708Z,15.99
2022-08-10T03:15:38.354Z,15.98
2022-08-10T03:18:05.545Z,15.99
2022-08-10T03:20:39.768Z,16.00
2022-08-10T03:23:15.371Z,15.95
2022-08-10T03:25:53.089Z,15.90
2022-08-10T03:28:28.245Z,15.85
2022-08-10T03:30:54.969Z,15.82
2022-08-10T03:33:22.233Z,15.79
2022-08-10T03:36:42.531Z,15.71
2022-08-10T03:38:36.020Z,15.68
2022-08-10T03:41:05.306Z,15.65
2022-08-10T03:43:31.834Z,15.57
2022-08-10T03:45:59.713Z,15.54
2022-08-10T03:48:45.078Z,15.55
2022-08-10T03:51:13.648Z,15.52
2022-08-10T03:54:03.752Z,15.49
2022-08-10T03:56:31.565Z,15.47
2022-08-10T03:58:59.179Z,15.48
2022-08-10T04:02:46.141Z,15.48
2022-08-10T04:04:14.700Z,15.42
2022-08-10T04:06:44.607Z,15.41
2022-08-10T04:09:11.055Z,15.42
2022-08-10T04:11:37.784Z,15.37
2022-08-10T04:14:07.275Z,15.36
2022-08-10T04:16:53.844Z,15.36
2022-08-10T04:19:20.357Z,15.33
2022-08-10T04:21:50.089Z,15.30
2022-08-10T04:24:27.137Z,15.28
2022-08-10T04:26:59.677Z,15.27
2022-08-10T04:29:26.177Z,15.27
2022-08-10T04:31:52.764Z,15.28
2022-08-10T04:34:19.398Z,15.25
2022-08-10T04:36:45.845Z,15.24
2022-08-10T04:39:13.578Z,15.25
2022-08-10T04:41:46.072Z,15.26
2022-08-10T04:44:13.861Z,15.26
2022-08-10T04:46:56.335Z,15.29
2022-08-10T04:49:54.168Z,15.30
2022-08-10T04:52:12.951Z,15.30
2022-08-10T04:54:39.440Z,15.31
2022-08-10T04:57:06.145Z,15.30
2022-08-10T04:59:32.620Z,15.31
2022-08-10T05:02:30.402Z,15.33
2022-08-10T05:04:45.486Z,15.36
2022-08-10T05:07:16.973Z,15.43
2022-08-10T05:10:02.866Z,15.52
2022-08-10T05:12:34.631Z,15.57
2022-08-10T05:15:05.320Z,15.60
2022-08-10T05:17:31.735Z,15.64
2022-08-10T05:20:03.646Z,15.68
2022-08-10T05:22:34.478Z,15.75
2022-08-10T05:25:01.133Z,15.78
2022-08-10T05:27:27.657Z,15.84
2022-08-10T05:30:01.791Z,15.90
2022-08-10T05:32:30.757Z,15.96
2022-08-10T05:34:57.618Z,16.00
2022-08-10T05:38:10.859Z,16.05
2022-08-10T05:40:10.833Z,16.13
2022-08-10T05:42:37.482Z,16.24
2022-08-10T05:45:04.410Z,16.27
2022-08-10T05:48:55.671Z,16.32
2022-08-10T05:50:17.696Z,16.37
2022-08-10T05:52:44.223Z,16.42
2022-08-10T05:55:11.516Z,16.45
2022-08-10T05:57:38.036Z,16.55
2022-08-10T06:00:34.515Z,16.63
2022-08-10T06:02:59.191Z,16.72
2022-08-10T06:05:26.560Z,16.83
2022-08-10T06:08:09.438Z,16.93
2022-08-10T06:12:21.663Z,16.98
2022-08-10T06:13:59.833Z,17.08
2022-08-10T06:16:29.785Z,17.18
2022-08-10T06:18:56.380Z,17.27
2022-08-10T06:21:22.934Z,17.37
2022-08-10T06:23:49.605Z,17.42
2022-08-10T06:26:20.976Z,17.52
2022-08-10T06:29:02.777Z,17.58
2022-08-10T06:31:47.906Z,17.66
2022-08-10T06:34:20.489Z,17.82
2022-08-10T06:36:47.126Z,17.94
2022-08-10T06:39:32.546Z,18.00
2022-08-10T06:42:14.809Z,18.06
2022-08-10T06:45:06.677Z,18.10
2022-08-10T06:47:43.924Z,18.16
2022-08-10T06:50:44.515Z,18.21
2022-08-10T06:53:12.843Z,18.30
2022-08-10T06:55:55.117Z,18.28
2022-08-10T06:58:26.979Z,18.26
2022-08-10T07:00:53.869Z,18.37
2022-08-10T07:03:20.446Z,18.41
2022-08-10T07:05:51.171Z,18.58
2022-08-10T07:08:18.451Z,18.70
2022-08-10T07:10:46.641Z,18.69
2022-08-10T07:13:15.557Z,18.74
2022-08-10T07:16:02.023Z,18.75
2022-08-10T07:18:28.469Z,18.74
2022-08-10T07:20:56.294Z,18.80
2022-08-10T07:23:57.604Z,18.99
2022-08-10T07:26:09.924Z,19.14
2022-08-10T07:28:36.477Z,19.21
2022-08-10T07:31:02.980Z,19.27
2022-08-10T07:33:30.245Z,19.40
2022-08-10T07:35:56.745Z,19.44
2022-08-10T07:38:24.542Z,19.54
2022-08-10T07:40:51.796Z,19.78
2022-08-10T07:43:19.060Z,19.91
2022-08-10T07:45:45.535Z,19.91
2022-08-10T07:48:15.205Z,19.91
2022-08-10T07:50:41.818Z,19.98
2022-08-10T07:53:10.390Z,20.03
2022-08-10T07:56:04.252Z,20.09
2022-08-10T07:58:25.786Z,20.19
2022-08-10T08:00:52.480Z,20.25
2022-08-10T08:03:21.142Z,20.34
2022-08-10T08:05:58.267Z,20.50
2022-08-10T08:08:29.271Z,20.69
2022-08-10T08:10:58.033Z,20.78
2022-08-10T08:13:24.534Z,21.07
2022-08-10T08:16:17.256Z,21.11
2022-08-10T08:18:37.749Z,21.19
2022-08-10T08:21:07.642Z,21.27
2022-08-10T08:24:05.580Z,21.28
2022-08-10T08:26:37.659Z,21.55
2022-08-10T08:29:04.954Z,21.68
2022-08-10T08:31:31.514Z,21.86
2022-08-10T08:33:57.962Z,22.04
2022-08-10T08:36:24.421Z,22.12
2022-08-10T08:38:50.890Z,22.25
2022-08-10T08:41:47.869Z,22.23
2022-08-10T08:44:51.806Z,22.33
2022-08-10T08:48:05.253Z,22.35
2022-08-10T08:50:40.017Z,22.32
2022-08-10T08:54:01.583Z,22.41
2022-08-10T08:56:21.361Z,22.72
2022-08-10T08:58:50.696Z,22.85
2022-08-10T09:01:42.124Z,22.95
2022-08-10T09:04:30.829Z,23.18
2022-08-10T09:07:07.183Z,23.15
2022-08-10T09:10:01.419Z,23.32
2022-08-10T09:12:51.610Z,23.25
2022-08-10T09:15:40.931Z,23.38
2022-08-10T09:18:18.487Z,23.40
2022-08-10T09:20:51.479Z,23.49
2022-08-10T09:24:05.267Z,23.60
2022-08-10T09:26:58.956Z,23.58
2022-08-10T09:29:26.822Z,23.63
2022-08-10T09:36:17.572Z,23.67
2022-08-10T09:36:23.156Z,23.72
2022-08-10T09:38:34.074Z,23.96
2022-08-10T09:41:13.003Z,24.15
2022-08-10T09:43:55.033Z,24.14
2022-08-10T09:46:34.343Z,24.06
2022-08-10T09:49:22.378Z,23.99
2022-08-10T09:52:01.884Z,23.98
2022-08-10T09:54:56.109Z,24.11
2022-08-10T09:57:44.401Z,24.28
2022-08-10T10:00:15.474Z,24.48
2022-08-10T10:02:52.608Z,24.56
2022-08-10T10:05:50.374Z,24.41
2022-08-10T10:08:30.302Z,24.42
2022-08-10T10:11:19.656Z,24.56
2022-08-10T10:14:08.154Z,24.84
2022-08-10T10:17:10.863Z,25.06
2022-08-10T10:20:05.168Z,25.25
2022-08-10T10:23:01.726Z,25.17
2022-08-10T10:25:50.976Z,25.43
2022-08-10T10:29:37.621Z,25.60
2022-08-10T10:32:08.791Z,25.55
2022-08-10T10:34:53.821Z,25.51
2022-08-10T10:37:20.787Z,25.25
2022-08-10T10:40:07.952Z,25.36
2022-08-10T10:43:19.538Z,25.62
2022-08-10T10:45:57.853Z,25.88
2022-08-10T10:49:08.264Z,26.09
2022-08-10T10:51:41.762Z,26.36
2022-08-10T10:54:10.400Z,26.73
2022-08-10T10:56:57.464Z,26.77
2022-08-10T10:59:55.896Z,27.00
2022-08-10T11:02:42.296Z,26.94
2022-08-10T11:05:17.701Z,26.99
2022-08-10T11:07:56.828Z,26.92
2022-08-10T11:10:47.304Z,27.29
2022-08-10T11:14:25.831Z,27.61
2022-08-10T11:16:43.409Z,28.09
2022-08-10T11:19:19.698Z,28.64
2022-08-10T11:22:07.973Z,28.53
2022-08-10T11:25:06.816Z,29.25
2022-08-10T11:27:50.974Z,29.45
2022-08-10T11:30:32.234Z,29.42
2022-08-10T11:33:30.824Z,29.35
2022-08-10T11:36:11.586Z,29.64
2022-08-10T11:39:11.115Z,29.67
2022-08-10T11:42:09.791Z,29.61
2022-08-10T11:44:43.314Z,29.78
2022-08-10T11:47:20.627Z,29.93
2022-08-10T11:50:01.852Z,30.19
2022-08-10T11:52:39.784Z,30.95
2022-08-10T11:55:13.619Z,31.22
2022-08-10T11:57:53.940Z,31.24
2022-08-10T12:00:21.947Z,31.52
2022-08-10T12:02:50.386Z,31.46
2022-08-10T12:05:53.896Z,31.58
2022-08-10T12:10:06.815Z,30.95
2022-08-10T12:11:10.046Z,31.32
2022-08-10T12:13:40.178Z,31.43
2022-08-10T12:16:06.804Z,31.24
2022-08-10T12:18:48.176Z,31.70
2022-08-10T12:21:23.634Z,31.40
2022-08-10T12:24:08.808Z,31.39
2022-08-10T12:26:41.770Z,31.60
2022-08-10T12:29:15.158Z,31.60
2022-08-10T12:32:07.773Z,32.58
2022-08-10T12:35:12.654Z,32.79
2022-08-10T12:38:22.162Z,32.12
2022-08-10T12:40:51.589Z,31.97
2022-08-10T12:44:07.737Z,32.32
2022-08-10T12:47:01.340Z,32.31
2022-08-10T12:49:40.748Z,32.52
2022-08-10T12:52:32.943Z,32.95
2022-08-10T12:54:59.784Z,31.80
2022-08-10T12:57:26.308Z,30.99
2022-08-10T12:59:57.525Z,31.93
2022-08-10T13:02:31.369Z,32.03
2022-08-10T13:04:59.023Z,32.15
2022-08-10T13:08:03.635Z,33.23
2022-08-10T13:10:19.739Z,33.31
2022-08-10T13:12:49.228Z,33.68
2022-08-10T13:15:45.648Z,32.92
2022-08-10T13:18:04.991Z,33.10
2022-08-10T13:20:35.003Z,33.36
2022-08-10T13:23:02.499Z,32.96
2022-08-10T13:25:31.558Z,33.38
2022-08-10T13:28:34.727Z,32.70
2022-08-10T13:30:50.804Z,32.82
2022-08-10T13:33:17.788Z,32.76
2022-08-10T13:36:04.378Z,32.57
2022-08-10T13:38:31.964Z,32.76
2022-08-10T13:40:58.395Z,32.58
2022-08-10T13:43:24.880Z,32.46
2022-08-10T13:45:51.330Z,32.89
2022-08-10T13:48:20.116Z,33.94
2022-08-10T13:50:46.660Z,33.47
2022-08-10T13:53:15.481Z,34.07
2022-08-10T13:55:54.589Z,34.46
2022-08-10T13:58:28.134Z,34.64
2022-08-10T14:00:56.018Z,34.02
2022-08-10T14:03:22.530Z,33.45
2022-08-10T14:05:53.941Z,33.38
2022-08-10T14:08:25.802Z,33.80
2022-08-10T14:11:09.139Z,33.55
2022-08-10T14:13:37.837Z,33.62
2022-08-10T14:16:06.003Z,34.19
2022-08-10T14:18:34.869Z,34.56
2022-08-10T14:21:01.312Z,34.81
2022-08-10T14:23:32.293Z,34.90
2022-08-10T14:26:08.519Z,34.67
2022-08-10T14:28:41.887Z,33.95
2022-08-10T14:31:21.137Z,33.83
2022-08-10T14:33:53.345Z,35.17
2022-08-10T14:36:26.108Z,35.51
2022-08-10T14:38:53.094Z,34.59
2022-08-10T14:42:03.792Z,33.88
2022-08-10T14:44:10.730Z,33.53
2022-08-10T14:46:42.048Z,34.08
2022-08-10T14:49:26.254Z,34.89
2022-08-10T14:51:53.275Z,35.12
2022-08-10T14:54:28.234Z,34.13
2022-08-10T14:56:55.280Z,33.85
2022-08-10T14:59:21.844Z,34.19
2022-08-10T15:02:01.445Z,34.12
2022-08-10T15:04:35.399Z,33.39
2022-08-10T15:07:12.920Z,34.12
2022-08-10T15:10:00.406Z,34.93
2022-08-10T15:12:36.674Z,35.23
2022-08-10T15:15:16.458Z,35.17
2022-08-10T15:17:50.734Z,34.69
2022-08-10T15:20:21.561Z,34.71
2022-08-10T15:22:50.124Z,34.22
2022-08-10T15:25:24.453Z,34.44
2022-08-10T15:27:57.213Z,33.82
2022-08-10T15:30:30.010Z,33.70
2022-08-10T15:33:16.190Z,33.84
2022-08-10T15:36:06.543Z,34.02
2022-08-10T15:38:35.393Z,33.56
2022-08-10T15:41:01.961Z,33.26
2022-08-10T15:43:36.807Z,33.35
2022-08-10T15:46:16.010Z,33.20
2022-08-10T15:49:03.094Z,34.04
2022-08-10T15:51:53.934Z,34.05
2022-08-10T15:54:33.162Z,33.54
2022-08-10T15:57:02.998Z,34.09
2022-08-10T15:59:32.800Z,33.65
2022-08-10T16:02:16.145Z,34.23
2022-08-10T16:05:06.705Z,35.10
2022-08-10T16:07:38.948Z,35.56
2022-08-10T16:10:26.084Z,35.51
2022-08-10T16:12:59.910Z,34.86
2022-08-10T16:15:27.810Z,34.82
2022-08-10T16:18:01.573Z,35.80
2022-08-10T16:20:31.536Z,35.97
2022-08-10T16:23:00.649Z,36.33
2022-08-10T16:25:47.778Z,35.13
2022-08-10T16:28:23.126Z,35.53
2022-08-10T16:30:53.033Z,37.13
2022-08-10T16:33:23.158Z,37.16
2022-08-10T16:35:51.537Z,36.05
2022-08-10T16:38:17.990Z,37.36
2022-08-10T16:40:44.547Z,36.38
2022-08-10T16:43:11.271Z,34.82
2022-08-10T16:45:43.435Z,34.48
2022-08-10T16:48:10.068Z,34.52
2022-08-10T16:50:45.276Z,34.74
2022-08-10T16:53:13.809Z,32.94
2022-08-10T16:55:49.489Z,31.53
2022-08-10T16:58:20.339Z,31.73
2022-08-10T17:00:46.887Z,31.01
2022-08-10T17:03:22.455Z,30.79
2022-08-10T17:06:01.696Z,31.33
2022-08-10T17:08:50.336Z,30.50
2022-08-10T17:11:17.574Z,30.87
2022-08-10T17:13:44.098Z,30.58
2022-08-10T17:16:10.570Z,30.32
2022-08-10T17:18:38.463Z,30.20
2022-08-10T17:21:20.089Z,30.72
2022-08-10T17:23:51.453Z,32.06
2022-08-10T17:26:35.439Z,32.74
2022-08-10T17:29:08.593Z,32.84
2022-08-10T17:31:54.945Z,31.63
2022-08-10T17:34:24.794Z,29.83
2022-08-10T17:36:58.017Z,29.77
2022-08-10T17:39:29.312Z,29.26
2022-08-10T17:41:58.667Z,28.94
2022-08-10T17:44:25.135Z,28.63
2022-08-10T17:46:51.615Z,28.47
2022-08-10T17:49:18.226Z,28.48
2022-08-10T17:51:50.586Z,28.53
2022-08-10T17:54:29.641Z,28.27
2022-08-10T17:56:58.455Z,28.19
2022-08-10T17:59:24.971Z,27.90
2022-08-10T18:02:01.659Z,27.85
2022-08-10T18:04:34.148Z,27.71
2022-08-10T18:07:07.128Z,27.84
2022-08-10T18:09:35.941Z,27.57
2022-08-10T18:12:17.576Z,27.40
2022-08-10T18:14:46.629Z,27.35
2022-08-10T18:17:14.554Z,27.14
2022-08-10T18:19:43.626Z,26.90
2022-08-10T18:22:11.791Z,26.95
2022-08-10T18:24:38.354Z,26.68
2022-08-10T18:27:05.091Z,26.73
2022-08-10T18:29:31.541Z,26.61
2022-08-10T18:32:02.017Z,26.55
2022-08-10T18:34:32.241Z,26.47
2022-08-10T18:36:58.738Z,26.46
2022-08-10T18:39:27.886Z,26.38
2022-08-10T18:42:00.452Z,26.33
2022-08-10T18:44:35.069Z,26.24
2022-08-10T18:47:03.839Z,26.13
2022-08-10T18:49:32.875Z,26.04
2022-08-10T18:52:02.474Z,25.91
2022-08-10T18:54:50.060Z,25.80
2022-08-10T18:57:28.951Z,25.66
2022-08-10T19:00:14.695Z,25.56
2022-08-10T19:02:47.958Z,25.38
2022-08-10T19:05:30.879Z,25.21
2022-08-10T19:08:30.380Z,25.02
2022-08-10T19:11:23.916Z,24.92
2022-08-10T19:14:08.551Z,24.78
2022-08-10T19:16:50.483Z,24.67
2022-08-10T19:19:33.268Z,24.58
2022-08-10T19:22:06.615Z,24.45
2022-08-10T19:24:33.053Z,24.36
2022-08-10T19:27:11.720Z,24.30
2022-08-10T19:30:09.255Z,24.17
2022-08-10T19:32:37.846Z,24.09
2022-08-10T19:35:08.894Z,24.03
2022-08-10T19:38:01.103Z,24.00
2022-08-10T19:40:44.185Z,23.88
2022-08-10T19:44:00.709Z,23.79
2022-08-10T19:46:41.204Z,23.68
2022-08-10T19:49:39.692Z,23.55
2022-08-10T19:52:19.604Z,23.41
2022-08-10T19:55:15.479Z,23.36
2022-08-10T19:57:44.557Z,23.25
2022-08-10T20:00:19.269Z,23.18
2022-08-10T20:03:10.599Z,23.12
2022-08-10T20:06:13.249Z,23.07
2022-08-10T20:09:06.436Z,22.98
2022-08-10T20:11:45.586Z,22.94
2022-08-10T20:14:31.274Z,22.88
2022-08-10T20:17:04.040Z,22.82
2022-08-10T20:19:52.858Z,22.73
2022-08-10T20:22:29.580Z,22.69
2022-08-10T20:25:02.962Z,22.60
2022-08-10T20:27:44.378Z,22.53
2022-08-10T20:30:20.671Z,22.48
2022-08-10T20:32:50.823Z,22.39
2022-08-10T20:35:23.351Z,22.34
2022-08-10T20:38:03.594Z,22.27
2022-08-10T20:40:46.761Z,22.22
2022-08-10T20:43:19.731Z,22.21
2022-08-10T20:46:10.991Z,22.15
2022-08-10T20:48:54.594Z,22.05
2022-08-10T20:51:22.866Z,21.92
2022-08-10T20:53:55.703Z,21.81
2022-08-10T20:56:28.262Z,21.72
2022-08-10T20:59:16.476Z,21.67
2022-08-10T21:02:27.004Z,21.57
2022-08-10T21:05:05.147Z,21.51
2022-08-10T21:10:42.694Z,21.39
2022-08-10T21:13:12.056Z,21.35
2022-08-10T21:16:07.696Z,21.31
2022-08-10T21:18:45.823Z,21.27
2022-08-10T21:21:18.222Z,21.17
2022-08-10T21:24:06.295Z,21.09
2022-08-10T21:26:45.075Z,21.08
2022-08-10T21:29:37.937Z,21.04
2022-08-10T21:32:12.158Z,20.97
2022-08-10T21:35:15.537Z,20.89
2022-08-10T21:41:17.483Z,20.77
2022-08-10T21:44:18.024Z,20.69
2022-08-10T21:47:10.131Z,20.60
2022-08-10T21:50:07.633Z,20.58
2022-08-10T21:53:00.739Z,20.56
2022-08-10T21:56:09.589Z,20.56
2022-08-10T21:59:23.188Z,20.52
2022-08-10T22:02:11.856Z,20.46
2022-08-10T22:04:57.563Z,20.37
2022-08-10T22:07:42.232Z,20.27
2022-08-10T22:10:28.612Z,20.24
2022-08-10T22:13:13.560Z,20.20
2022-08-10T22:16:11.051Z,20.15
2022-08-10T22:19:01.388Z,20.08
2022-08-10T22:21:48.105Z,19.98
2022-08-10T22:24:41.836Z,19.95
2022-08-10T22:27:47.458Z,19.95
2022-08-10T22:30:34.921Z,19.91
2022-08-10T22:31:27.381Z,20.84
2022-08-10T22:33:59.238Z,19.80
2022-08-10T22:36:56.468Z,19.75
2022-08-10T22:40:11.926Z,19.69
2022-08-10T22:43:10.714Z,19.59
2022-08-10T22:45:57.350Z,19.51
2022-08-10T22:48:42.499Z,19.49
2022-08-10T22:51:15.853Z,19.43
2022-08-10T22:54:03.724Z,19.39
2022-08-10T22:56:48.864Z,19.36
2022-08-10T22:59:26.413Z,19.31
2022-08-10T23:02:08.386Z,19.28
2022-08-10T23:04:38.371Z,19.24
2022-08-10T23:07:17.222Z,19.21
2022-08-10T23:09:44.780Z,19.13
2022-08-10T23:12:16.919Z,19.10
2022-08-10T23:14:59.260Z,19.06
2022-08-10T23:18:00.592Z,18.99
2022-08-10T23:20:29.008Z,18.96
2022-08-10T23:22:59.390Z,18.89
2022-08-10T23:25:28.313Z,18.86
2022-08-10T23:28:03.133Z,18.85
2022-08-10T23:30:38.968Z,18.77
2022-08-10T23:33:11.647Z,18.74
2022-08-10T23:36:29.874Z,18.74
2022-08-10T23:38:36.271Z,18.71
2022-08-10T23:41:03.357Z,18.66
2022-08-10T23:44:00.844Z,18.63
2022-08-10T23:46:23.418Z,18.56
2022-08-10T23:48:49.886Z,18.51
2022-08-10T23:51:17.229Z,18.51
2022-08-10T23:53:44.908Z,18.50
2022-08-10T23:56:16.548Z,18.43
2022-08-10T23:58:55.846Z,18.40
